TimeCST,TemperatureF,Dew PointF,Humidity,Sea Level PressureIn,VisibilityMPH,Wind Direction,Wind SpeedMPH,Gust SpeedMPH,PrecipitationIn,Events,Conditions,WindDirDegrees,DateUTC
12:06 AM,12.9,8.1,81,30.33,0.5,North,11.5,18.4,0.02,Snow,Snow,10,2014-03-02 06:06:00
12:22 AM,12.9,8.1,81,30.33,0.8,NNE,9.2,-,0.03,Snow,Light Snow,20,2014-03-02 06:22:00
12:36 AM,12.9,8.1,81,30.33,1.0,North,8.1,-,0.04,Snow,Light Snow,10,2014-03-02 06:36:00
12:44 AM,12.9,8.1,81,30.34,0.8,North,9.2,-,0.05,Snow,Light Snow,360,2014-03-02 06:44:00
12:54 AM,12.0,8.1,84,30.38,0.5,North,6.9,-,0.07,Fog-Snow,Snow,10,2014-03-02 06:54:00
1:09 AM,12.0,7.0,80,30.35,1.0,North,8.1,-,0.01,Snow,Light Snow,360,2014-03-02 07:09:00
1:22 AM,12.0,7.0,80,30.35,0.8,North,5.8,-,0.02,Snow,Light Snow,360,2014-03-02 07:22:00
1:38 AM,12.0,7.0,80,30.34,0.5,North,5.8,-,0.04,Snow,Snow,360,2014-03-02 07:38:00
1:51 AM,12.2,6.8,79,30.34,1.0,North,9.2,16.1,0.05,Snow,Light Snow,360,2014-03-02 07:51:00
1:52 AM,10.9,6.1,81,30.38,1.0,North,10.4,16.1,0.05,Snow,Light Snow,360,2014-03-02 07:52:00
2:06 AM,10.9,6.1,81,30.34,1.2,North,8.1,-,0.01,Snow,Light Snow,360,2014-03-02 08:06:00
2:16 AM,10.9,6.1,81,30.34,1.8,North,8.1,-,0.01,Snow,Light Snow,350,2014-03-02 08:16:00
2:26 AM,10.9,6.1,81,30.33,1.0,North,5.8,-,0.02,Snow,Light Snow,10,2014-03-02 08:26:00
2:32 AM,10.9,6.1,81,30.33,0.8,NNE,10.4,17.3,0.03,Snow,Light Snow,20,2014-03-02 08:32:00
2:54 AM,10.9,6.1,81,30.38,1.0,North,8.1,-,0.05,Snow,Light Snow,10,2014-03-02 08:54:00
3:01 AM,10.9,6.1,81,30.34,1.2,North,9.2,-,0.00,Snow,Light Snow,10,2014-03-02 09:01:00
3:35 AM,10.9,5.0,77,30.33,1.8,North,9.2,-,0.01,Snow,Light Snow,360,2014-03-02 09:35:00
3:54 AM,10.9,5.0,77,30.39,1.8,North,10.4,17.3,0.02,Snow,Light Snow,350,2014-03-02 09:54:00
4:25 AM,10.0,5.0,80,30.35,1.2,North,5.8,-,0.01,Snow,Light Snow,10,2014-03-02 10:25:00
4:40 AM,10.0,5.0,80,30.35,1.5,Variable,6.9,-,0.01,Snow,Light Snow,0,2014-03-02 10:40:00
4:52 AM,10.4,3.2,73,30.36,1.2,North,8.1,-,0.02,Snow,Light Snow,10,2014-03-02 10:52:00
4:54 AM,10.0,3.9,76,30.40,1.2,NNE,9.2,-,0.02,Snow,Light Snow,20,2014-03-02 10:54:00
5:06 AM,10.0,5.0,80,30.36,1.8,North,6.9,-,0.00,Snow,Light Snow,360,2014-03-02 11:06:00
5:14 AM,10.0,3.9,76,30.37,2.5,North,5.8,-,0.00,Snow,Light Snow,360,2014-03-02 11:14:00
5:25 AM,10.0,3.9,76,30.37,1.0,North,6.9,-,0.01,Snow,Light Snow,350,2014-03-02 11:25:00
5:35 AM,10.0,3.9,76,30.37,1.0,North,6.9,-,0.01,Snow,Light Snow,10,2014-03-02 11:35:00
5:45 AM,10.0,3.9,76,30.36,1.0,North,6.9,17.3,0.01,Snow,Light Snow,10,2014-03-02 11:45:00
5:54 AM,10.0,3.9,76,30.41,1.0,North,6.9,-,0.01,Snow,Light Snow,10,2014-03-02 11:54:00
6:00 AM,10.0,3.9,76,30.37,3.0,North,10.4,18.4,0.00,Snow,Light Snow,360,2014-03-02 12:00:00
6:10 AM,9.0,1.9,73,30.37,7.0,North,11.5,17.3,0.00,,Overcast,10,2014-03-02 12:10:00
6:54 AM,9.0,-0.9,64,30.44,10.0,North,11.5,19.6,0.00,,Overcast,360,2014-03-02 12:54:00
7:54 AM,8.1,-2.9,61,30.44,10.0,North,9.2,-,N/A,,Clear,350,2014-03-02 13:54:00
8:54 AM,8.1,-4.0,58,30.47,10.0,North,15.0,20.7,N/A,,Overcast,360,2014-03-02 14:54:00
9:54 AM,8.1,-4.0,58,30.47,10.0,North,13.8,20.7,N/A,,Overcast,360,2014-03-02 15:54:00
10:54 AM,9.0,-2.9,59,30.49,10.0,NNW,8.1,-,N/A,,Overcast,330,2014-03-02 16:54:00
11:54 AM,10.0,-4.0,53,30.46,10.0,North,8.1,16.1,N/A,,Scattered Clouds,350,2014-03-02 17:54:00
12:54 PM,9.0,-5.1,53,30.43,10.0,North,9.2,19.6,N/A,,Clear,360,2014-03-02 18:54:00
1:54 PM,9.0,-5.1,53,30.46,10.0,North,10.4,21.9,N/A,,Clear,360,2014-03-02 19:54:00
2:54 PM,7.0,-7.1,53,30.44,10.0,North,10.4,-,N/A,,Clear,360,2014-03-02 20:54:00
3:54 PM,6.1,-8.0,53,30.47,10.0,NNW,9.2,18.4,N/A,,Clear,340,2014-03-02 21:54:00
4:54 PM,6.1,-9.0,50,30.45,10.0,North,9.2,18.4,N/A,,Clear,350,2014-03-02 22:54:00
5:54 PM,5.0,-9.9,50,30.48,10.0,NNW,9.2,17.3,N/A,,Clear,340,2014-03-02 23:54:00
6:54 PM,5.0,-9.9,50,30.49,10.0,North,8.1,-,N/A,,Clear,350,2014-03-03 00:54:00
7:54 PM,5.0,-9.9,50,30.48,10.0,North,6.9,-,N/A,,Clear,350,2014-03-03 01:54:00
8:54 PM,3.9,-9.9,53,30.50,10.0,NW,6.9,-,N/A,,Clear,320,2014-03-03 02:54:00
9:54 PM,3.0,-9.9,55,30.50,10.0,NNW,5.8,-,N/A,,Clear,340,2014-03-03 03:54:00
10:54 PM,1.9,-11.0,55,30.49,10.0,Variable,5.8,-,N/A,,Clear,0,2014-03-03 04:54:00
11:54 PM,1.0,-11.9,55,30.50,10.0,North,8.1,-,N/A,,Clear,350,2014-03-03 05:54:00